SLCY weather

Collpa Airport
A. IbaƱez, Santa Cruz Department, Bolivia

Public forecast

Using degrees Celsius for public forecast. Weather courtesy of forecast.io.

METAR (pilot weather report)

Closest report is Viru Viru International Airport, 5.3 nm (9.8 km) SSE. Retrieved 2019/03/27 02:00 UTC (55 seconds ago):

SLVR 270200Z 18015G25KT 9999 FEW012 SCT070 BKN200 23/20 Q1016

TAF (pilot weather forecast)

Forecast is more than 12 hours old.

Closest forecast is Viru Viru International Airport, 5.3 nm (9.8 km) SSE. Retrieved 2019/03/25 00:25 UTC (2 days ago):

TAF SLVR 252150Z 2600/2624 18010KT 9999 BKN020 FEW030CB TX30/2620Z TN21/2610Z PROB40 TEMPO 2607/2610 8000 RA SCT006 BKN010 FEW030CB BKN070 BECMG 2612/2615 18015KT 9999 NSW BKN015 BECMG 2620/2623 5000 TSRA BKN010